sensor_id;sensor_type;location;lat;lon;timestamp;pressure;altitude;pressure_sealevel;temperature;humidity
52185;BME280;38160;52.876;18.778;2023-02-02T00:02:17;99522.23;;;2.04;100.00
52185;BME280;38160;52.876;18.778;2023-02-02T00:04:59;99522.38;;;2.06;100.00
52185;BME280;38160;52.876;18.778;2023-02-02T00:07:35;99517.86;;;2.09;100.00
52185;BME280;38160;52.876;18.778;2023-02-02T00:10:13;99516.70;;;2.12;100.00
52185;BME280;38160;52.876;18.778;2023-02-02T00:12:55;99516.42;;;2.15;100.00
52185;BME280;38160;52.876;18.778;2023-02-02T00:15:35;99513.73;;;2.17;100.00
52185;BME280;38160;52.876;18.778;2023-02-02T00:18:31;99515.98;;;2.20;100.00
52185;BME280;38160;52.876;18.778;2023-02-02T00:21:17;99512.54;;;2.23;100.00
52185;BME280;38160;52.876;18.778;2023-02-02T00:24:24;99510.93;;;2.23;100.00
52185;BME280;38160;52.876;18.778;2023-02-02T00:27:15;99504.10;;;2.26;100.00
52185;BME280;38160;52.876;18.778;2023-02-02T00:30:53;99504.48;;;2.26;100.00
52185;BME280;38160;52.876;18.778;2023-02-02T00:33:35;99506.31;;;2.29;100.00
52185;BME280;38160;52.876;18.778;2023-02-02T00:36:38;99507.11;;;2.32;100.00
52185;BME280;38160;52.876;18.778;2023-02-02T00:39:47;99505.98;;;2.33;100.00
52185;BME280;38160;52.876;18.778;2023-02-02T00:42:33;99506.23;;;2.34;100.00
52185;BME280;38160;52.876;18.778;2023-02-02T00:45:15;99513.34;;;2.34;100.00
52185;BME280;38160;52.876;18.778;2023-02-02T00:48:37;99515.54;;;2.37;100.00
52185;BME280;38160;52.876;18.778;2023-02-02T00:55:57;99512.16;;;2.43;100.00
52185;BME280;38160;52.876;18.778;2023-02-02T00:59:03;99509.77;;;2.43;100.00
52185;BME280;38160;52.876;18.778;2023-02-02T01:01:51;99518.09;;;2.48;100.00
52185;BME280;38160;52.876;18.778;2023-02-02T01:04:35;99510.76;;;2.51;100.00
52185;BME280;38160;52.876;18.778;2023-02-02T01:08:51;99512.52;;;2.52;100.00
52185;BME280;38160;52.876;18.778;2023-02-02T01:12:43;99513.47;;;2.56;100.00
52185;BME280;38160;52.876;18.778;2023-02-02T01:15:55;99514.67;;;2.56;100.00
52185;BME280;38160;52.876;18.778;2023-02-02T01:18:43;99506.06;;;2.57;100.00
52185;BME280;38160;52.876;18.778;2023-02-02T01:21:28;99501.53;;;2.58;100.00
52185;BME280;38160;52.876;18.778;2023-02-02T01:24:07;99496.96;;;2.56;100.00
52185;BME280;38160;52.876;18.778;2023-02-02T01:26:47;99502.94;;;2.58;100.00
52185;BME280;38160;52.876;18.778;2023-02-02T01:29:27;99505.96;;;2.60;100.00
52185;BME280;38160;52.876;18.778;2023-02-02T01:32:06;99504.11;;;2.61;100.00
52185;BME280;38160;52.876;18.778;2023-02-02T01:35:03;99504.05;;;2.62;100.00
52185;BME280;38160;52.876;18.778;2023-02-02T01:37:47;99502.59;;;2.62;100.00
52185;BME280;38160;52.876;18.778;2023-02-02T01:40:50;99496.27;;;2.61;100.00
52185;BME280;38160;52.876;18.778;2023-02-02T01:46:38;99499.98;;;2.61;100.00
52185;BME280;38160;52.876;18.778;2023-02-02T01:50:10;99495.29;;;2.60;100.00
52185;BME280;38160;52.876;18.778;2023-02-02T01:53:28;99492.95;;;2.61;100.00
52185;BME280;38160;52.876;18.778;2023-02-02T01:56:40;99495.45;;;2.61;100.00
52185;BME280;38160;52.876;18.778;2023-02-02T02:00:27;99493.15;;;2.60;100.00
52185;BME280;38160;52.876;18.778;2023-02-02T02:03:58;99493.41;;;2.57;100.00
52185;BME280;38160;52.876;18.778;2023-02-02T02:07:18;99497.81;;;2.56;100.00
52185;BME280;38160;52.876;18.778;2023-02-02T02:10:22;99496.23;;;2.54;100.00
52185;BME280;38160;52.876;18.778;2023-02-02T02:13:43;99497.64;;;2.54;100.00
52185;BME280;38160;52.876;18.778;2023-02-02T02:17:24;99497.87;;;2.54;100.00
52185;BME280;38160;52.876;18.778;2023-02-02T02:20:55;99497.78;;;2.54;100.00
52185;BME280;38160;52.876;18.778;2023-02-02T02:24:58;99490.68;;;2.51;100.00
52185;BME280;38160;52.876;18.778;2023-02-02T02:28:18;99489.23;;;2.51;100.00
52185;BME280;38160;52.876;18.778;2023-02-02T02:34:34;99488.77;;;2.48;100.00
52185;BME280;38160;52.876;18.778;2023-02-02T02:37:32;99486.02;;;2.47;100.00
52185;BME280;38160;52.876;18.778;2023-02-02T02:40:44;99481.74;;;2.47;100.00
52185;BME280;38160;52.876;18.778;2023-02-02T02:43:28;99475.66;;;2.48;100.00
52185;BME280;38160;52.876;18.778;2023-02-02T02:46:18;99479.91;;;2.48;100.00
52185;BME280;38160;52.876;18.778;2023-02-02T02:49:17;99476.56;;;2.48;100.00
52185;BME280;38160;52.876;18.778;2023-02-02T02:52:06;99478.02;;;2.49;100.00
52185;BME280;38160;52.876;18.778;2023-02-02T02:54:56;99466.13;;;2.47;100.00
52185;BME280;38160;52.876;18.778;2023-02-02T03:01:48;99465.77;;;2.50;100.00
52185;BME280;38160;52.876;18.778;2023-02-02T03:04:36;99464.91;;;2.55;100.00
52185;BME280;38160;52.876;18.778;2023-02-02T03:07:25;99467.05;;;2.55;100.00
52185;BME280;38160;52.876;18.778;2023-02-02T03:10:04;99459.42;;;2.55;100.00
52185;BME280;38160;52.876;18.778;2023-02-02T03:12:47;99462.61;;;2.53;100.00
52185;BME280;38160;52.876;18.778;2023-02-02T03:15:28;99460.77;;;2.55;100.00
52185;BME280;38160;52.876;18.778;2023-02-02T03:18:12;99457.35;;;2.58;100.00
52185;BME280;38160;52.876;18.778;2023-02-02T03:20:50;99459.73;;;2.57;100.00
52185;BME280;38160;52.876;18.778;2023-02-02T03:23:29;99458.55;;;2.58;100.00
52185;BME280;38160;52.876;18.778;2023-02-02T03:26:08;99454.25;;;2.58;100.00
52185;BME280;38160;52.876;18.778;2023-02-02T03:32:59;99450.16;;;2.61;100.00
52185;BME280;38160;52.876;18.778;2023-02-02T03:35:40;99445.34;;;2.61;100.00
52185;BME280;38160;52.876;18.778;2023-02-02T03:38:17;99440.96;;;2.60;100.00
52185;BME280;38160;52.876;18.778;2023-02-02T03:41:00;99440.14;;;2.63;100.00
52185;BME280;38160;52.876;18.778;2023-02-02T03:44:08;99437.57;;;2.66;100.00
52185;BME280;38160;52.876;18.778;2023-02-02T03:47:02;99437.23;;;2.68;100.00
52185;BME280;38160;52.876;18.778;2023-02-02T03:50:12;99432.83;;;2.67;100.00
52185;BME280;38160;52.876;18.778;2023-02-02T03:53:15;99432.23;;;2.68;100.00
52185;BME280;38160;52.876;18.778;2023-02-02T03:55:55;99424.33;;;2.69;100.00
52185;BME280;38160;52.876;18.778;2023-02-02T03:58:33;99419.27;;;2.72;100.00
52185;BME280;38160;52.876;18.778;2023-02-02T04:01:13;99416.33;;;2.73;100.00
52185;BME280;38160;52.876;18.778;2023-02-02T04:04:27;99411.58;;;2.75;100.00
52185;BME280;38160;52.876;18.778;2023-02-02T04:07:06;99407.15;;;2.74;100.00
52185;BME280;38160;52.876;18.778;2023-02-02T04:09:52;99405.60;;;2.74;100.00
52185;BME280;38160;52.876;18.778;2023-02-02T04:12:36;99396.31;;;2.73;100.00
52185;BME280;38160;52.876;18.778;2023-02-02T04:15:19;99399.90;;;2.70;100.00
52185;BME280;38160;52.876;18.778;2023-02-02T04:18:04;99392.17;;;2.67;100.00
52185;BME280;38160;52.876;18.778;2023-02-02T04:20:45;99391.23;;;2.64;100.00
52185;BME280;38160;52.876;18.778;2023-02-02T04:23:28;99387.77;;;2.61;100.00
52185;BME280;38160;52.876;18.778;2023-02-02T04:26:12;99385.83;;;2.59;100.00
52185;BME280;38160;52.876;18.778;2023-02-02T04:28:57;99381.63;;;2.59;100.00
52185;BME280;38160;52.876;18.778;2023-02-02T04:31:38;99378.95;;;2.59;100.00
52185;BME280;38160;52.876;18.778;2023-02-02T04:34:19;99371.39;;;2.56;100.00
52185;BME280;38160;52.876;18.778;2023-02-02T04:37:06;99366.74;;;2.53;100.00
52185;BME280;38160;52.876;18.778;2023-02-02T04:39:52;99359.41;;;2.51;100.00
52185;BME280;38160;52.876;18.778;2023-02-02T04:42:38;99350.37;;;2.48;100.00
52185;BME280;38160;52.876;18.778;2023-02-02T04:45:19;99350.91;;;2.51;100.00
52185;BME280;38160;52.876;18.778;2023-02-02T04:48:04;99350.91;;;2.49;100.00
52185;BME280;38160;52.876;18.778;2023-02-02T04:50:44;99355.11;;;2.46;100.00
52185;BME280;38160;52.876;18.778;2023-02-02T04:53:25;99351.56;;;2.44;100.00
52185;BME280;38160;52.876;18.778;2023-02-02T04:56:11;99354.52;;;2.43;100.00
52185;BME280;38160;52.876;18.778;2023-02-02T04:59:08;99349.77;;;2.42;100.00
52185;BME280;38160;52.876;18.778;2023-02-02T05:02:09;99349.28;;;2.44;100.00
52185;BME280;38160;52.876;18.778;2023-02-02T05:05:12;99349.12;;;2.42;100.00
52185;BME280;38160;52.876;18.778;2023-02-02T05:08:25;99340.65;;;2.41;100.00
52185;BME280;38160;52.876;18.778;2023-02-02T05:12:06;99341.34;;;2.34;100.00
52185;BME280;38160;52.876;18.778;2023-02-02T05:14:43;99346.15;;;2.35;100.00
52185;BME280;38160;52.876;18.778;2023-02-02T05:17:27;99345.04;;;2.34;100.00
52185;BME280;38160;52.876;18.778;2023-02-02T05:20:05;99347.34;;;2.33;100.00
52185;BME280;38160;52.876;18.778;2023-02-02T05:22:42;99338.42;;;2.29;100.00
52185;BME280;38160;52.876;18.778;2023-02-02T05:25:19;99343.56;;;2.25;100.00
52185;BME280;38160;52.876;18.778;2023-02-02T05:28:00;99343.80;;;2.22;100.00
52185;BME280;38160;52.876;18.778;2023-02-02T05:30:40;99343.02;;;2.21;100.00
52185;BME280;38160;52.876;18.778;2023-02-02T05:33:17;99343.38;;;2.19;100.00
52185;BME280;38160;52.876;18.778;2023-02-02T05:35:54;99339.55;;;2.15;100.00
52185;BME280;38160;52.876;18.778;2023-02-02T05:38:30;99343.14;;;2.13;100.00
52185;BME280;38160;52.876;18.778;2023-02-02T05:41:16;99341.00;;;2.05;100.00
52185;BME280;38160;52.876;18.778;2023-02-02T05:43:53;99337.36;;;1.98;100.00
52185;BME280;38160;52.876;18.778;2023-02-02T05:46:30;99334.02;;;1.94;100.00
52185;BME280;38160;52.876;18.778;2023-02-02T05:49:06;99331.20;;;1.92;100.00
52185;BME280;38160;52.876;18.778;2023-02-02T05:51:46;99327.48;;;1.84;100.00
52185;BME280;38160;52.876;18.778;2023-02-02T05:54:28;99331.05;;;1.78;100.00
52185;BME280;38160;52.876;18.778;2023-02-02T05:57:08;99340.89;;;1.77;100.00
52185;BME280;38160;52.876;18.778;2023-02-02T05:59:52;99331.48;;;1.75;100.00
52185;BME280;38160;52.876;18.778;2023-02-02T06:02:29;99337.25;;;1.72;100.00
52185;BME280;38160;52.876;18.778;2023-02-02T06:05:27;99339.38;;;1.70;100.00
52185;BME280;38160;52.876;18.778;2023-02-02T06:08:04;99340.95;;;1.71;100.00
52185;BME280;38160;52.876;18.778;2023-02-02T06:10:47;99347.10;;;1.73;100.00
52185;BME280;38160;52.876;18.778;2023-02-02T06:13:25;99356.50;;;1.75;100.00
52185;BME280;38160;52.876;18.778;2023-02-02T06:16:02;99366.20;;;1.76;100.00
52185;BME280;38160;52.876;18.778;2023-02-02T06:18:43;99374.52;;;1.78;100.00
52185;BME280;38160;52.876;18.778;2023-02-02T06:21:21;99375.52;;;1.76;100.00
52185;BME280;38160;52.876;18.778;2023-02-02T06:23:59;99368.55;;;1.73;100.00
52185;BME280;38160;52.876;18.778;2023-02-02T06:26:37;99364.23;;;1.66;100.00
52185;BME280;38160;52.876;18.778;2023-02-02T06:29:16;99369.73;;;1.60;100.00
52185;BME280;38160;52.876;18.778;2023-02-02T06:31:52;99371.52;;;1.56;100.00
52185;BME280;38160;52.876;18.778;2023-02-02T06:34:33;99381.10;;;1.54;100.00
52185;BME280;38160;52.876;18.778;2023-02-02T06:37:10;99385.52;;;1.52;100.00
52185;BME280;38160;52.876;18.778;2023-02-02T06:39:48;99391.98;;;1.53;100.00
52185;BME280;38160;52.876;18.778;2023-02-02T06:42:25;99396.41;;;1.55;100.00
52185;BME280;38160;52.876;18.778;2023-02-02T06:45:03;99391.79;;;1.52;100.00
52185;BME280;38160;52.876;18.778;2023-02-02T06:48:02;99402.92;;;1.56;100.00
52185;BME280;38160;52.876;18.778;2023-02-02T06:50:46;99409.05;;;1.60;100.00
52185;BME280;38160;52.876;18.778;2023-02-02T06:53:25;99413.92;;;1.64;100.00
52185;BME280;38160;52.876;18.778;2023-02-02T06:56:04;99415.27;;;1.66;100.00
52185;BME280;38160;52.876;18.778;2023-02-02T06:58:45;99424.82;;;1.71;100.00
52185;BME280;38160;52.876;18.778;2023-02-02T07:01:24;99429.80;;;1.72;100.00
52185;BME280;38160;52.876;18.778;2023-02-02T07:04:03;99437.73;;;1.77;100.00
52185;BME280;38160;52.876;18.778;2023-02-02T07:06:39;99443.90;;;1.81;100.00
52185;BME280;38160;52.876;18.778;2023-02-02T07:09:17;99449.55;;;1.83;100.00
52185;BME280;38160;52.876;18.778;2023-02-02T07:11:54;99460.89;;;1.88;100.00
52185;BME280;38160;52.876;18.778;2023-02-02T07:14:30;99466.21;;;1.90;100.00
52185;BME280;38160;52.876;18.778;2023-02-02T07:17:08;99473.61;;;1.94;100.00
52185;BME280;38160;52.876;18.778;2023-02-02T07:19:46;99482.95;;;1.99;100.00
52185;BME280;38160;52.876;18.778;2023-02-02T07:22:27;99494.02;;;2.02;100.00
52185;BME280;38160;52.876;18.778;2023-02-02T07:25:33;99503.04;;;2.04;100.00
52185;BME280;38160;52.876;18.778;2023-02-02T07:28:23;99510.40;;;2.05;100.00
52185;BME280;38160;52.876;18.778;2023-02-02T07:31:00;99519.86;;;2.07;100.00
52185;BME280;38160;52.876;18.778;2023-02-02T07:34:01;99528.42;;;2.10;100.00
52185;BME280;38160;52.876;18.778;2023-02-02T07:36:41;99534.73;;;2.13;100.00
52185;BME280;38160;52.876;18.778;2023-02-02T07:43:01;99545.99;;;2.18;100.00
52185;BME280;38160;52.876;18.778;2023-02-02T07:52:00;99561.87;;;2.37;100.00
52185;BME280;38160;52.876;18.778;2023-02-02T07:54:51;99574.95;;;2.43;100.00
52185;BME280;38160;52.876;18.778;2023-02-02T07:57:51;99578.11;;;2.48;100.00
52185;BME280;38160;52.876;18.778;2023-02-02T08:04:41;99593.44;;;2.55;100.00
52185;BME280;38160;52.876;18.778;2023-02-02T08:33:19;99670.13;;;2.71;100.00
52185;BME280;38160;52.876;18.778;2023-02-02T08:35:56;99681.23;;;2.64;100.00
52185;BME280;38160;52.876;18.778;2023-02-02T08:38:37;99686.60;;;2.59;100.00
52185;BME280;38160;52.876;18.778;2023-02-02T08:41:18;99689.27;;;2.58;100.00
52185;BME280;38160;52.876;18.778;2023-02-02T08:43:55;99693.22;;;2.59;100.00
52185;BME280;38160;52.876;18.778;2023-02-02T08:46:36;99701.05;;;2.61;100.00
52185;BME280;38160;52.876;18.778;2023-02-02T08:49:19;99707.87;;;2.64;100.00
52185;BME280;38160;52.876;18.778;2023-02-02T08:51:55;99710.17;;;2.66;100.00
52185;BME280;38160;52.876;18.778;2023-02-02T08:54:52;99717.83;;;2.66;100.00
52185;BME280;38160;52.876;18.778;2023-02-02T08:57:31;99722.71;;;2.69;100.00
52185;BME280;38160;52.876;18.778;2023-02-02T09:00:18;99730.40;;;2.73;100.00
52185;BME280;38160;52.876;18.778;2023-02-02T09:03:07;99734.52;;;2.72;100.00
52185;BME280;38160;52.876;18.778;2023-02-02T09:05:43;99743.70;;;2.71;100.00
52185;BME280;38160;52.876;18.778;2023-02-02T09:08:24;99746.73;;;2.75;100.00
52185;BME280;38160;52.876;18.778;2023-02-02T09:11:17;99753.52;;;2.76;100.00
52185;BME280;38160;52.876;18.778;2023-02-02T09:13:57;99756.89;;;2.76;100.00
52185;BME280;38160;52.876;18.778;2023-02-02T09:16:40;99771.02;;;2.73;100.00
52185;BME280;38160;52.876;18.778;2023-02-02T09:19:17;99774.52;;;2.63;100.00
52185;BME280;38160;52.876;18.778;2023-02-02T09:21:55;99777.52;;;2.54;100.00
52185;BME280;38160;52.876;18.778;2023-02-02T09:24:33;99786.48;;;2.48;100.00
52185;BME280;38160;52.876;18.778;2023-02-02T09:27:11;99793.20;;;2.47;100.00
52185;BME280;38160;52.876;18.778;2023-02-02T09:29:48;99799.91;;;2.43;100.00
52185;BME280;38160;52.876;18.778;2023-02-02T09:32:48;99807.55;;;2.35;100.00
52185;BME280;38160;52.876;18.778;2023-02-02T09:35:25;99810.80;;;2.30;100.00
52185;BME280;38160;52.876;18.778;2023-02-02T09:38:02;99816.29;;;2.28;100.00
52185;BME280;38160;52.876;18.778;2023-02-02T09:40:40;99816.28;;;2.26;100.00
52185;BME280;38160;52.876;18.778;2023-02-02T09:43:34;99810.77;;;2.28;100.00
52185;BME280;38160;52.876;18.778;2023-02-02T09:46:23;99819.98;;;2.33;100.00
52185;BME280;38160;52.876;18.778;2023-02-02T09:49:08;99821.41;;;2.39;100.00
52185;BME280;38160;52.876;18.778;2023-02-02T09:51:56;99825.89;;;2.46;100.00
52185;BME280;38160;52.876;18.778;2023-02-02T09:54:38;99825.77;;;2.56;100.00
52185;BME280;38160;52.876;18.778;2023-02-02T09:57:24;99829.36;;;2.68;100.00
52185;BME280;38160;52.876;18.778;2023-02-02T10:00:20;99836.72;;;2.77;100.00
52185;BME280;38160;52.876;18.778;2023-02-02T10:03:01;99847.98;;;2.87;100.00
52185;BME280;38160;52.876;18.778;2023-02-02T10:05:47;99848.56;;;2.92;100.00
52185;BME280;38160;52.876;18.778;2023-02-02T10:08:30;99857.36;;;2.99;100.00
52185;BME280;38160;52.876;18.778;2023-02-02T10:11:22;99865.36;;;3.07;100.00
52185;BME280;38160;52.876;18.778;2023-02-02T10:14:04;99874.40;;;3.14;100.00
52185;BME280;38160;52.876;18.778;2023-02-02T10:16:43;99880.54;;;3.18;100.00
52185;BME280;38160;52.876;18.778;2023-02-02T10:19:24;99888.66;;;3.21;100.00
52185;BME280;38160;52.876;18.778;2023-02-02T10:22:11;99890.20;;;3.28;100.00
52185;BME280;38160;52.876;18.778;2023-02-02T10:24:50;99895.25;;;3.35;100.00
52185;BME280;38160;52.876;18.778;2023-02-02T10:27:32;99903.07;;;3.41;100.00
52185;BME280;38160;52.876;18.778;2023-02-02T10:30:17;99912.04;;;3.44;100.00
52185;BME280;38160;52.876;18.778;2023-02-02T10:33:04;99911.99;;;3.47;100.00
52185;BME280;38160;52.876;18.778;2023-02-02T10:35:46;99919.65;;;3.51;100.00
52185;BME280;38160;52.876;18.778;2023-02-02T10:38:46;99926.60;;;3.53;100.00
52185;BME280;38160;52.876;18.778;2023-02-02T10:41:38;99937.31;;;3.56;100.00
52185;BME280;38160;52.876;18.778;2023-02-02T10:44:32;99947.80;;;3.60;100.00
52185;BME280;38160;52.876;18.778;2023-02-02T10:47:19;99956.48;;;3.67;100.00
52185;BME280;38160;52.876;18.778;2023-02-02T10:50:27;99958.53;;;3.72;100.00
52185;BME280;38160;52.876;18.778;2023-02-02T10:53:15;99965.04;;;3.70;100.00
52185;BME280;38160;52.876;18.778;2023-02-02T10:55:57;99972.03;;;3.70;100.00
52185;BME280;38160;52.876;18.778;2023-02-02T10:58:43;99982.91;;;3.70;100.00
52185;BME280;38160;52.876;18.778;2023-02-02T11:01:21;99988.73;;;3.72;100.00
52185;BME280;38160;52.876;18.778;2023-02-02T11:03:58;99987.73;;;3.76;100.00
52185;BME280;38160;52.876;18.778;2023-02-02T11:06:52;99994.73;;;3.81;100.00
52185;BME280;38160;52.876;18.778;2023-02-02T11:09:31;99998.98;;;3.85;100.00
52185;BME280;38160;52.876;18.778;2023-02-02T11:12:19;100003.80;;;3.89;100.00
52185;BME280;38160;52.876;18.778;2023-02-02T11:14:59;100013.84;;;3.94;100.00
52185;BME280;38160;52.876;18.778;2023-02-02T11:17:42;100018.41;;;3.99;100.00
52185;BME280;38160;52.876;18.778;2023-02-02T11:20:30;100026.02;;;4.05;100.00
52185;BME280;38160;52.876;18.778;2023-02-02T11:27:04;100049.42;;;4.14;100.00
52185;BME280;38160;52.876;18.778;2023-02-02T11:29:48;100056.01;;;4.18;100.00
52185;BME280;38160;52.876;18.778;2023-02-02T11:32:54;100057.56;;;4.27;100.00
52185;BME280;38160;52.876;18.778;2023-02-02T11:35:52;100059.02;;;4.40;100.00
52185;BME280;38160;52.876;18.778;2023-02-02T11:38:37;100060.91;;;4.53;100.00
52185;BME280;38160;52.876;18.778;2023-02-02T11:41:18;100059.70;;;4.62;100.00
52185;BME280;38160;52.876;18.778;2023-02-02T11:47:36;100067.19;;;4.68;100.00
52185;BME280;38160;52.876;18.778;2023-02-02T11:50:21;100068.25;;;4.72;100.00
52185;BME280;38160;52.876;18.778;2023-02-02T11:52:59;100071.20;;;4.72;100.00
52185;BME280;38160;52.876;18.778;2023-02-02T11:55:36;100071.80;;;4.74;100.00
52185;BME280;38160;52.876;18.778;2023-02-02T11:58:19;100075.61;;;4.75;100.00
52185;BME280;38160;52.876;18.778;2023-02-02T12:01:01;100087.71;;;4.75;100.00
52185;BME280;38160;52.876;18.778;2023-02-02T12:08:29;100101.98;;;4.75;100.00
52185;BME280;38160;52.876;18.778;2023-02-02T12:19:41;100121.40;;;4.49;100.00
52185;BME280;38160;52.876;18.778;2023-02-02T12:22:38;100125.23;;;4.47;100.00
52185;BME280;38160;52.876;18.778;2023-02-02T12:26:22;100117.71;;;4.45;100.00
52185;BME280;38160;52.876;18.778;2023-02-02T12:33:17;100115.37;;;4.35;100.00
52185;BME280;38160;52.876;18.778;2023-02-02T12:37:23;100131.09;;;4.23;100.00
52185;BME280;38160;52.876;18.778;2023-02-02T12:44:31;100144.13;;;4.46;100.00
52185;BME280;38160;52.876;18.778;2023-02-02T12:47:46;100155.73;;;4.68;100.00
52185;BME280;38160;52.876;18.778;2023-02-02T12:50:30;100159.02;;;4.77;100.00
52185;BME280;38160;52.876;18.778;2023-02-02T12:53:22;100155.48;;;4.83;100.00
52185;BME280;38160;52.876;18.778;2023-02-02T12:56:12;100159.95;;;4.77;100.00
52185;BME280;38160;52.876;18.778;2023-02-02T12:59:02;100165.30;;;4.72;100.00
52185;BME280;38160;52.876;18.778;2023-02-02T13:02:02;100168.71;;;4.68;100.00
52185;BME280;38160;52.876;18.778;2023-02-02T13:04:50;100172.61;;;4.61;100.00
52185;BME280;38160;52.876;18.778;2023-02-02T13:07:36;100176.33;;;4.53;100.00
52185;BME280;38160;52.876;18.778;2023-02-02T13:10:19;100183.70;;;4.54;100.00
52185;BME280;38160;52.876;18.778;2023-02-02T13:13:04;100187.41;;;4.52;100.00
52185;BME280;38160;52.876;18.778;2023-02-02T13:15:45;100191.71;;;4.50;99.96
52185;BME280;38160;52.876;18.778;2023-02-02T13:18:28;100194.79;;;4.48;99.91
52185;BME280;38160;52.876;18.778;2023-02-02T13:21:09;100201.36;;;4.50;99.93
52185;BME280;38160;52.876;18.778;2023-02-02T13:23:51;100206.40;;;4.49;99.95
52185;BME280;38160;52.876;18.778;2023-02-02T13:26:33;100216.33;;;4.48;99.18
52185;BME280;38160;52.876;18.778;2023-02-02T13:29:21;100225.11;;;4.47;99.24
52185;BME280;38160;52.876;18.778;2023-02-02T13:32:06;100229.77;;;4.41;98.10
52185;BME280;38160;52.876;18.778;2023-02-02T13:34:50;100239.03;;;4.28;98.19
52185;BME280;38160;52.876;18.778;2023-02-02T13:37:34;100250.23;;;4.12;97.54
52185;BME280;38160;52.876;18.778;2023-02-02T13:40:23;100250.45;;;3.93;96.48
52185;BME280;38160;52.876;18.778;2023-02-02T13:43:11;100262.40;;;3.80;97.87
52185;BME280;38160;52.876;18.778;2023-02-02T13:46:03;100268.27;;;3.69;97.79
52185;BME280;38160;52.876;18.778;2023-02-02T13:48:52;100267.64;;;3.67;97.65
52185;BME280;38160;52.876;18.778;2023-02-02T13:51:55;100273.15;;;3.64;97.93
52185;BME280;38160;52.876;18.778;2023-02-02T13:57:57;100289.35;;;3.49;97.67
52185;BME280;38160;52.876;18.778;2023-02-02T14:00:43;100294.52;;;3.45;97.35
52185;BME280;38160;52.876;18.778;2023-02-02T14:03:37;100303.16;;;3.43;97.55
52185;BME280;38160;52.876;18.778;2023-02-02T14:06:17;100306.33;;;3.44;98.20
52185;BME280;38160;52.876;18.778;2023-02-02T14:08:58;100308.35;;;3.45;98.52
52185;BME280;38160;52.876;18.778;2023-02-02T14:11:40;100311.54;;;3.50;98.38
52185;BME280;38160;52.876;18.778;2023-02-02T14:14:46;100319.16;;;3.55;98.41
52185;BME280;38160;52.876;18.778;2023-02-02T14:17:53;100325.45;;;3.56;98.38
52185;BME280;38160;52.876;18.778;2023-02-02T14:20:47;100335.30;;;3.53;97.60
52185;BME280;38160;52.876;18.778;2023-02-02T14:23:52;100343.41;;;3.43;97.22
52185;BME280;38160;52.876;18.778;2023-02-02T14:26:43;100346.66;;;3.40;97.33
52185;BME280;38160;52.876;18.778;2023-02-02T14:32:45;100363.77;;;3.44;96.85
52185;BME280;38160;52.876;18.778;2023-02-02T14:35:55;100372.84;;;3.42;96.26
52185;BME280;38160;52.876;18.778;2023-02-02T14:41:55;100387.85;;;3.39;96.12
52185;BME280;38160;52.876;18.778;2023-02-02T14:45:28;100396.87;;;3.35;95.95
52185;BME280;38160;52.876;18.778;2023-02-02T14:48:12;100408.94;;;3.27;95.55
52185;BME280;38160;52.876;18.778;2023-02-02T14:50:52;100417.71;;;3.21;95.42
52185;BME280;38160;52.876;18.778;2023-02-02T14:53:35;100416.09;;;3.17;95.45
52185;BME280;38160;52.876;18.778;2023-02-02T14:56:44;100427.70;;;3.14;95.36
52185;BME280;38160;52.876;18.778;2023-02-02T14:59:26;100431.90;;;3.10;95.18
52185;BME280;38160;52.876;18.778;2023-02-02T15:02:13;100443.63;;;3.03;95.21
52185;BME280;38160;52.876;18.778;2023-02-02T15:04:51;100453.84;;;2.96;95.09
52185;BME280;38160;52.876;18.778;2023-02-02T15:07:51;100461.35;;;2.88;94.81
52185;BME280;38160;52.876;18.778;2023-02-02T15:14:08;100480.96;;;2.69;95.11
52185;BME280;38160;52.876;18.778;2023-02-02T15:16:48;100486.40;;;2.63;95.02
52185;BME280;38160;52.876;18.778;2023-02-02T15:19:32;100495.42;;;2.59;95.04
52185;BME280;38160;52.876;18.778;2023-02-02T15:22:22;100499.48;;;2.54;95.00
52185;BME280;38160;52.876;18.778;2023-02-02T15:25:11;100504.51;;;2.51;95.23
52185;BME280;38160;52.876;18.778;2023-02-02T15:27:55;100512.17;;;2.51;94.55
52185;BME280;38160;52.876;18.778;2023-02-02T15:30:34;100523.52;;;2.51;94.98
52185;BME280;38160;52.876;18.778;2023-02-02T15:33:28;100529.65;;;2.55;95.14
52185;BME280;38160;52.876;18.778;2023-02-02T15:36:09;100537.39;;;2.53;94.75
52185;BME280;38160;52.876;18.778;2023-02-02T15:38:50;100548.02;;;2.54;95.10
52185;BME280;38160;52.876;18.778;2023-02-02T15:41:30;100554.05;;;2.54;94.66
52185;BME280;38160;52.876;18.778;2023-02-02T15:44:20;100562.88;;;2.54;94.94
52185;BME280;38160;52.876;18.778;2023-02-02T15:46:57;100573.51;;;2.52;95.17
52185;BME280;38160;52.876;18.778;2023-02-02T15:49:36;100584.39;;;2.52;94.85
52185;BME280;38160;52.876;18.778;2023-02-02T15:52:15;100591.11;;;2.52;94.85
52185;BME280;38160;52.876;18.778;2023-02-02T15:54:54;100595.52;;;2.52;94.78
52185;BME280;38160;52.876;18.778;2023-02-02T15:57:33;100604.77;;;2.52;94.80
52185;BME280;38160;52.876;18.778;2023-02-02T16:00:26;100612.23;;;2.55;95.23
52185;BME280;38160;52.876;18.778;2023-02-02T16:03:07;100614.01;;;2.55;94.74
52185;BME280;38160;52.876;18.778;2023-02-02T16:05:51;100624.55;;;2.52;94.65
52185;BME280;38160;52.876;18.778;2023-02-02T16:08:31;100629.45;;;2.53;95.07
52185;BME280;38160;52.876;18.778;2023-02-02T16:11:10;100648.23;;;2.53;94.99
52185;BME280;38160;52.876;18.778;2023-02-02T16:13:58;100670.59;;;2.51;95.21
52185;BME280;38160;52.876;18.778;2023-02-02T16:16:37;100681.38;;;2.34;95.89
52185;BME280;38160;52.876;18.778;2023-02-02T16:19:18;100686.78;;;2.11;96.26
52185;BME280;38160;52.876;18.778;2023-02-02T16:21:57;100699.65;;;1.92;96.74